Pagrindinis puslapis
METAR-TAF:

METAR-TAF

Oro uostai :

Vitebskas, Baltarusija

platuma: 55-10N, ilguma: 030-13E, Aukštis: 176 m

Dabartinis oras

Ataskaita buvo paskelbta 17 minutes, ne 12:10 UTC
Vėjas 19 kt iš Vakarų/Pietvakarių su gūsio iki 25 kt
Temperatūra 5°C
Drėgmė 75%
Slėgis 1006 hPa
Matomumas: 4100 m
Apsiniaukę ne aukštis 1200 ft, Liūtiniai kamuoliniai debesys.
lietus

METAR: UMII 161210Z 24010G13MPS 4100 -SHRA OVC012CB 05/01 Q1006 R23/290064 TEMPO 2000 SHRASN BKN005

Laikas: 15:27 (12:27 UTC)

Prognozė

Ataskaita buvo paskelbta 1 valandą ir 16 minutes, ne 11:11 UTC
Prognozė galioja nuo 16 metu 12 UTC su 16 metu 21 UTC
Vėjas 16 kt iš Vakarų/Pietvakarių su gūsio iki 25 kt
Matomumas: 6000 m
Su prošvaistėmis ne aukštis 800 ft
Laikinai
nuo 16 metu 12 UTC su 16 metu 21 UTC
Vėjas 27 kt nuo kintamojo kryptimis
Matomumas: 2000 m
Su prošvaistėmis ne aukštis 500 ft
Su prošvaistėmis ne aukštis 1000 ft, Liūtiniai kamuoliniai debesys.
lietus, sniegas, rūkana

TAF: UMII 161111Z 1612/1621 24008G13MPS 6000 BKN008 TEMPO 1612/1621 VRB14MPS 2000 SHRASN BR BKN005 BKN010CB

Orai ataskaitas ir orų prognozės (METAR, TAF).

turimą stotys yra geltonos ir raudonos taškus žemėlapyje.

Perkelti pele per norėdami pamatyti stoties vardą.

Tada spustelėkite, norėdami matyti oro stebėjimo ir prognozės.

Norėdami pakeisti žemėlapį: spustelėkite ant žalios mygtukų su juodo kryžiaus žemyn,; žalią mygtuką su brūkšneliu, jei norite nutolinti; arba žalių rodyklių gretimoms žemėlapius.


METAR-TAF: